createdAt,value
2019-05-29T00:00:27.447Z,12.30
2019-05-29T00:02:56.276Z,12.30
2019-05-29T00:05:25.169Z,12.30
2019-05-29T00:07:54.042Z,12.30
2019-05-29T00:10:23.011Z,12.30
2019-05-29T00:12:51.837Z,12.20
2019-05-29T00:15:20.767Z,12.20
2019-05-29T00:17:49.641Z,12.20
2019-05-29T00:20:18.727Z,12.10
2019-05-29T00:22:47.836Z,12.10
2019-05-29T00:25:16.788Z,12.10
2019-05-29T00:27:45.579Z,12.10
2019-05-29T00:30:15.077Z,12.10
2019-05-29T00:32:43.881Z,12.10
2019-05-29T00:35:14.419Z,12.10
2019-05-29T00:37:43.400Z,12.10
2019-05-29T00:40:14.973Z,12.10
2019-05-29T00:42:44.327Z,12.00
2019-05-29T00:45:13.786Z,12.10
2019-05-29T00:47:42.870Z,12.10
2019-05-29T00:50:12.415Z,12.10
2019-05-29T00:52:41.272Z,12.10
2019-05-29T00:55:10.478Z,12.10
2019-05-29T00:57:39.452Z,12.10
2019-05-29T01:00:09.062Z,12.10
2019-05-29T01:02:37.853Z,12.10
2019-05-29T01:05:06.815Z,12.10
2019-05-29T01:07:35.623Z,12.10
2019-05-29T01:10:05.037Z,12.10
2019-05-29T01:12:33.840Z,12.10
2019-05-29T01:15:02.635Z,12.10
2019-05-29T01:17:31.435Z,12.10
2019-05-29T01:20:00.236Z,12.10
2019-05-29T01:22:29.017Z,12.00
2019-05-29T01:24:57.954Z,12.10
2019-05-29T01:27:26.835Z,12.00
2019-05-29T01:29:55.662Z,12.00
2019-05-29T01:32:24.509Z,12.00
2019-05-29T01:34:53.298Z,12.00
2019-05-29T01:37:22.666Z,12.00
2019-05-29T01:39:51.474Z,11.90
2019-05-29T01:42:21.414Z,11.90
2019-05-29T01:45:05.978Z,11.90
2019-05-29T01:47:21.571Z,11.90
2019-05-29T01:49:50.831Z,11.90
2019-05-29T01:52:19.695Z,12.00
2019-05-29T01:54:48.553Z,11.90
2019-05-29T01:57:17.762Z,11.90
2019-05-29T01:59:46.720Z,11.90
2019-05-29T02:02:15.790Z,12.00
2019-05-29T02:04:44.703Z,12.00
2019-05-29T02:07:13.583Z,12.00
2019-05-29T02:09:42.758Z,12.00
2019-05-29T02:12:12.372Z,12.10
2019-05-29T02:14:41.467Z,12.10
2019-05-29T02:17:10.396Z,12.10
2019-05-29T02:19:39.586Z,12.10
2019-05-29T02:22:08.430Z,12.10
2019-05-29T02:24:37.362Z,12.10
2019-05-29T02:27:06.297Z,12.10
2019-05-29T02:29:35.091Z,12.10
2019-05-29T02:32:03.996Z,12.10
2019-05-29T02:34:32.846Z,12.00
2019-05-29T02:37:02.020Z,12.00
2019-05-29T02:39:30.879Z,12.00
2019-05-29T02:41:59.689Z,12.00
2019-05-29T02:44:29.665Z,12.00
2019-05-29T02:46:58.711Z,12.00
2019-05-29T02:49:28.097Z,12.00
2019-05-29T02:51:57.397Z,11.90
2019-05-29T02:54:27.224Z,11.90
2019-05-29T02:56:57.425Z,11.90
2019-05-29T02:59:27.655Z,11.80
2019-05-29T03:01:57.364Z,11.80
2019-05-29T03:04:28.066Z,11.80
2019-05-29T03:06:57.603Z,11.80
2019-05-29T03:09:28.346Z,11.70
2019-05-29T03:11:59.971Z,11.70
2019-05-29T03:14:29.646Z,11.70
2019-05-29T03:16:59.216Z,11.70
2019-05-29T03:19:30.153Z,11.70
2019-05-29T03:21:59.252Z,11.70
2019-05-29T03:24:28.698Z,11.60
2019-05-29T03:26:58.253Z,11.60
2019-05-29T03:29:28.171Z,11.60
2019-05-29T03:31:57.645Z,11.60
2019-05-29T03:34:30.468Z,11.60
2019-05-29T03:36:57.003Z,11.60
2019-05-29T03:39:26.328Z,11.60
2019-05-29T03:41:55.448Z,11.60
2019-05-29T03:44:25.982Z,11.60
2019-05-29T03:46:55.246Z,11.60
2019-05-29T03:49:24.364Z,11.60
2019-05-29T03:51:53.266Z,11.60
2019-05-29T03:54:22.516Z,11.60
2019-05-29T03:56:51.341Z,11.50
2019-05-29T03:59:20.236Z,11.50
2019-05-29T04:01:49.015Z,11.50
2019-05-29T04:04:17.943Z,11.50
2019-05-29T04:06:47.490Z,11.50
2019-05-29T04:09:16.779Z,11.40
2019-05-29T04:11:45.634Z,11.40
2019-05-29T04:14:15.366Z,11.40
2019-05-29T04:16:59.079Z,11.40
2019-05-29T04:19:17.029Z,11.30
2019-05-29T04:21:46.471Z,11.20
2019-05-29T04:24:18.687Z,11.20
2019-05-29T04:26:49.004Z,11.20
2019-05-29T04:29:18.702Z,11.20
2019-05-29T04:31:47.766Z,11.20
2019-05-29T04:34:16.708Z,11.20
2019-05-29T04:36:45.766Z,11.10
2019-05-29T04:39:14.561Z,11.10
2019-05-29T04:41:43.403Z,11.10
2019-05-29T04:44:12.235Z,11.00
2019-05-29T04:46:41.032Z,11.00
2019-05-29T04:49:10.097Z,11.00
2019-05-29T04:51:39.903Z,11.00
2019-05-29T04:54:08.918Z,11.00
2019-05-29T04:56:39.018Z,11.00
2019-05-29T04:59:07.934Z,10.90
2019-05-29T05:01:37.154Z,11.00
2019-05-29T05:04:06.237Z,11.00
2019-05-29T05:06:35.321Z,11.00
2019-05-29T05:09:05.677Z,11.00
2019-05-29T05:11:35.475Z,11.00
2019-05-29T05:14:04.600Z,11.10
2019-05-29T05:16:33.697Z,11.10
2019-05-29T05:19:02.688Z,11.10
2019-05-29T05:21:31.994Z,11.10
2019-05-29T05:24:01.353Z,11.10
2019-05-29T05:26:30.223Z,11.10
2019-05-29T05:28:59.133Z,11.10
2019-05-29T05:31:27.957Z,11.20
2019-05-29T05:33:57.183Z,11.20
2019-05-29T05:36:26.393Z,11.20
2019-05-29T05:38:55.610Z,11.30
2019-05-29T05:41:24.832Z,11.40
2019-05-29T05:43:53.739Z,11.30
2019-05-29T05:46:24.749Z,11.30
2019-05-29T05:48:53.148Z,11.20
2019-05-29T05:51:22.339Z,11.20
2019-05-29T05:53:51.129Z,11.20
2019-05-29T05:56:20.292Z,11.20
2019-05-29T05:58:49.135Z,11.20
2019-05-29T06:01:18.303Z,11.40
2019-05-29T06:03:47.332Z,11.40
2019-05-29T06:06:16.388Z,11.60
2019-05-29T06:08:45.604Z,11.60
2019-05-29T06:11:14.575Z,11.60
2019-05-29T06:13:43.467Z,11.60
2019-05-29T06:16:12.340Z,11.60
2019-05-29T06:18:42.787Z,11.70
2019-05-29T06:21:13.635Z,11.70
2019-05-29T06:23:43.540Z,11.70
2019-05-29T06:26:12.835Z,11.80
2019-05-29T06:28:43.462Z,11.70
2019-05-29T06:31:12.735Z,11.70
2019-05-29T06:33:41.871Z,11.80
2019-05-29T06:36:10.776Z,11.80
2019-05-29T06:38:40.412Z,11.70
2019-05-29T06:41:09.772Z,11.70
2019-05-29T06:43:39.831Z,11.70
2019-05-29T06:46:09.397Z,11.70
2019-05-29T06:48:44.847Z,11.70
2019-05-29T06:51:08.939Z,11.60
2019-05-29T06:53:37.850Z,11.60
2019-05-29T06:56:07.205Z,11.60
2019-05-29T06:58:37.954Z,11.60
2019-05-29T07:01:07.386Z,11.60
2019-05-29T07:03:37.630Z,11.50
2019-05-29T07:06:06.760Z,11.50
2019-05-29T07:08:40.126Z,11.50
2019-05-29T07:11:06.718Z,11.60
2019-05-29T07:13:37.725Z,11.60
2019-05-29T07:16:06.588Z,11.70
2019-05-29T07:18:36.581Z,11.80
2019-05-29T07:21:05.611Z,11.90
2019-05-29T07:23:34.548Z,11.90
2019-05-29T07:26:03.766Z,12.10
2019-05-29T07:28:32.711Z,12.10
2019-05-29T07:31:03.739Z,12.10
2019-05-29T07:33:32.115Z,12.10
2019-05-29T07:36:00.892Z,12.20
2019-05-29T07:38:29.692Z,12.30
2019-05-29T07:40:58.592Z,12.50
2019-05-29T07:43:27.423Z,12.50
2019-05-29T07:45:56.215Z,12.60
2019-05-29T07:48:25.017Z,12.70
2019-05-29T07:51:06.251Z,12.70
2019-05-29T07:53:24.612Z,12.70
2019-05-29T07:55:53.568Z,12.70
2019-05-29T07:58:22.974Z,12.70
2019-05-29T08:01:09.782Z,12.80
2019-05-29T08:03:22.806Z,12.80
2019-05-29T08:05:53.393Z,12.80
2019-05-29T08:08:22.407Z,12.90
2019-05-29T08:10:51.266Z,12.80
2019-05-29T08:13:20.051Z,12.80
2019-05-29T08:15:58.446Z,12.90
2019-05-29T08:18:19.527Z,13.00
2019-05-29T08:20:48.379Z,13.10
2019-05-29T08:23:17.198Z,13.20
2019-05-29T08:25:46.047Z,13.40
2019-05-29T08:28:14.803Z,13.40
2019-05-29T08:30:48.530Z,13.80
2019-05-29T08:33:14.571Z,13.90
2019-05-29T08:35:43.429Z,14.10
2019-05-29T08:38:12.319Z,14.40
2019-05-29T08:40:41.511Z,14.50
2019-05-29T08:43:10.279Z,14.50
2019-05-29T08:45:39.159Z,14.40
2019-05-29T08:48:08.322Z,14.50
2019-05-29T08:50:37.730Z,14.50
2019-05-29T08:53:06.658Z,14.60
2019-05-29T08:55:35.475Z,14.60
2019-05-29T08:58:04.471Z,14.50
2019-05-29T09:00:33.912Z,14.60
2019-05-29T09:03:02.752Z,14.60
2019-05-29T09:05:32.006Z,14.70
2019-05-29T09:08:00.902Z,14.60
2019-05-29T09:10:29.886Z,14.20
2019-05-29T09:13:04.727Z,14.10
2019-05-29T09:15:30.021Z,14.10
2019-05-29T09:17:59.218Z,14.10
2019-05-29T09:20:43.522Z,13.90
2019-05-29T09:22:58.560Z,13.90
2019-05-29T09:25:27.498Z,13.80
2019-05-29T09:27:56.271Z,13.80
2019-05-29T09:30:25.148Z,13.90
2019-05-29T09:32:54.307Z,14.00
2019-05-29T09:35:24.994Z,14.00
2019-05-29T09:37:54.096Z,14.10
2019-05-29T09:40:23.233Z,14.20
2019-05-29T09:42:52.091Z,14.30
2019-05-29T09:45:21.552Z,14.40
2019-05-29T09:47:50.607Z,14.60
2019-05-29T09:50:22.797Z,14.80
2019-05-29T09:52:50.617Z,14.90
2019-05-29T09:55:20.165Z,15.20
2019-05-29T09:57:49.775Z,15.20
2019-05-29T10:00:19.264Z,15.50
2019-05-29T10:02:48.191Z,15.50
2019-05-29T10:05:17.084Z,15.60
2019-05-29T10:07:46.533Z,15.60
2019-05-29T10:12:45.703Z,16.10
2019-05-29T10:15:15.231Z,16.10
2019-05-29T10:17:44.459Z,16.20
2019-05-29T10:20:15.207Z,16.30
2019-05-29T10:22:44.204Z,16.30
2019-05-29T10:25:13.670Z,16.60
2019-05-29T10:27:42.658Z,16.60
2019-05-29T10:30:13.585Z,16.70
2019-05-29T10:32:44.545Z,16.80
2019-05-29T10:35:14.463Z,16.90
2019-05-29T10:37:44.515Z,17.00
2019-05-29T10:40:14.307Z,16.70
2019-05-29T10:42:43.196Z,16.60
2019-05-29T10:45:12.484Z,16.50
2019-05-29T10:47:41.665Z,16.50
2019-05-29T10:50:12.788Z,16.60
2019-05-29T10:52:41.800Z,16.60
2019-05-29T10:55:11.520Z,16.30
2019-05-29T10:57:40.761Z,16.20
2019-05-29T11:00:10.019Z,16.00
2019-05-29T11:02:38.951Z,15.90
2019-05-29T11:05:08.826Z,15.70
2019-05-29T11:07:38.152Z,15.60
2019-05-29T11:10:07.444Z,15.70
2019-05-29T11:12:39.313Z,15.80
2019-05-29T11:15:20.740Z,16.00
2019-05-29T11:17:39.044Z,16.20
2019-05-29T11:20:08.954Z,16.20
2019-05-29T11:22:37.839Z,16.30
2019-05-29T11:25:21.479Z,16.50
2019-05-29T11:27:40.022Z,16.50
2019-05-29T11:30:09.589Z,16.40
2019-05-29T11:32:38.899Z,16.20
2019-05-29T11:35:07.898Z,16.20
2019-05-29T11:37:37.325Z,16.40
2019-05-29T11:40:06.591Z,16.40
2019-05-29T11:42:35.573Z,16.30
2019-05-29T11:45:05.711Z,16.40
2019-05-29T11:47:34.708Z,16.50
2019-05-29T11:50:18.590Z,16.50
2019-05-29T11:52:42.853Z,16.70
2019-05-29T11:55:09.337Z,16.80
2019-05-29T11:57:39.729Z,16.90
2019-05-29T12:00:19.826Z,17.10
2019-05-29T12:02:40.751Z,17.20
2019-05-29T12:05:11.504Z,17.40
2019-05-29T12:07:40.373Z,17.20
2019-05-29T12:10:10.139Z,17.20
2019-05-29T12:12:39.422Z,17.10
2019-05-29T12:15:14.419Z,17.00
2019-05-29T12:17:40.661Z,17.00
2019-05-29T12:20:26.944Z,16.80
2019-05-29T12:22:41.207Z,16.80
2019-05-29T12:25:10.533Z,16.70
2019-05-29T12:27:39.752Z,16.70
2019-05-29T12:30:11.141Z,16.70
2019-05-29T12:32:40.078Z,16.80
2019-05-29T12:35:09.794Z,17.00
2019-05-29T12:37:39.113Z,17.10
2019-05-29T12:40:08.555Z,17.10
2019-05-29T12:42:37.948Z,17.80
2019-05-29T12:45:08.156Z,17.30
2019-05-29T12:47:37.514Z,17.30
2019-05-29T12:50:08.370Z,17.30
2019-05-29T12:52:37.446Z,17.00
2019-05-29T12:55:07.356Z,17.00
2019-05-29T12:57:36.419Z,16.90
2019-05-29T13:00:06.524Z,16.90
2019-05-29T13:02:35.454Z,17.00
2019-05-29T13:05:13.821Z,17.00
2019-05-29T13:07:36.801Z,17.10
2019-05-29T13:10:06.614Z,17.20
2019-05-29T13:12:35.590Z,17.40
2019-05-29T13:15:05.902Z,17.60
2019-05-29T13:17:34.920Z,17.90
2019-05-29T13:20:20.127Z,17.90
2019-05-29T13:22:36.072Z,18.10
2019-05-29T13:25:06.206Z,18.00
2019-05-29T13:27:35.048Z,18.00
2019-05-29T13:30:06.741Z,18.00
2019-05-29T13:32:34.980Z,18.00
2019-05-29T13:35:06.169Z,18.00
2019-05-29T13:37:35.361Z,18.00
2019-05-29T13:40:06.902Z,18.00
2019-05-29T13:42:35.793Z,18.10
2019-05-29T13:45:11.293Z,18.50
2019-05-29T13:47:36.278Z,18.50
2019-05-29T13:50:09.322Z,18.40
2019-05-29T13:52:36.352Z,18.30
2019-05-29T13:55:06.162Z,18.30
2019-05-29T13:57:34.964Z,18.20
2019-05-29T14:00:17.098Z,18.30
2019-05-29T14:02:34.853Z,18.30
2019-05-29T14:05:04.744Z,18.40
2019-05-29T14:07:34.156Z,18.60
2019-05-29T14:10:04.675Z,19.30
2019-05-29T14:12:33.855Z,19.70
2019-05-29T14:15:04.402Z,19.70
2019-05-29T14:17:34.796Z,19.70
2019-05-29T14:20:04.684Z,19.60
2019-05-29T14:22:34.151Z,19.20
2019-05-29T14:25:03.284Z,19.10
2019-05-29T14:27:32.135Z,19.10
2019-05-29T14:30:03.242Z,18.90
2019-05-29T14:32:31.865Z,19.00
2019-05-29T14:35:03.733Z,18.90
2019-05-29T14:37:31.295Z,18.90
2019-05-29T14:40:01.526Z,18.80
2019-05-29T14:42:30.640Z,18.90
2019-05-29T14:44:59.475Z,18.80
2019-05-29T14:47:28.920Z,18.80
2019-05-29T14:49:58.015Z,19.10
2019-05-29T14:52:26.797Z,19.70
2019-05-29T14:54:55.708Z,20.30
2019-05-29T14:57:26.384Z,20.30
2019-05-29T14:59:55.593Z,20.40
2019-05-29T15:02:24.545Z,20.30
2019-05-29T15:04:53.736Z,20.00
2019-05-29T15:07:23.034Z,19.90
2019-05-29T15:09:52.090Z,19.80
2019-05-29T15:12:21.189Z,19.40
2019-05-29T15:14:50.119Z,19.20
2019-05-29T15:17:21.850Z,19.40
2019-05-29T15:19:58.108Z,20.50
2019-05-29T15:22:31.024Z,21.80
2019-05-29T15:25:11.289Z,22.60
2019-05-29T15:27:31.753Z,22.60
2019-05-29T15:30:00.661Z,22.80
2019-05-29T15:32:29.445Z,22.70
2019-05-29T15:34:58.426Z,22.20
2019-05-29T15:37:27.222Z,22.30
2019-05-29T15:39:56.305Z,22.40
2019-05-29T15:42:25.515Z,22.80
2019-05-29T15:44:54.284Z,23.10
2019-05-29T15:47:23.121Z,22.60
2019-05-29T15:49:54.313Z,21.90
2019-05-29T15:52:23.456Z,21.40
2019-05-29T15:54:52.525Z,21.30
2019-05-29T15:57:21.275Z,21.60
2019-05-29T15:59:50.096Z,22.00
2019-05-29T16:02:19.202Z,22.50
2019-05-29T16:04:48.056Z,23.00
2019-05-29T16:07:18.146Z,23.90
2019-05-29T16:09:47.373Z,23.80
2019-05-29T16:12:19.027Z,25.00
2019-05-29T16:14:47.885Z,25.00
2019-05-29T16:17:17.316Z,24.90
2019-05-29T16:19:50.456Z,24.50
2019-05-29T16:22:19.522Z,24.40
2019-05-29T16:24:48.640Z,24.30
2019-05-29T16:27:18.173Z,24.30
2019-05-29T16:29:47.673Z,24.40
2019-05-29T16:32:17.723Z,24.30
2019-05-29T16:34:46.654Z,24.10
2019-05-29T16:37:15.964Z,24.10
2019-05-29T16:39:45.011Z,24.20
2019-05-29T16:42:14.017Z,23.80
2019-05-29T16:44:43.006Z,23.80
2019-05-29T16:47:12.514Z,23.60
2019-05-29T16:49:41.536Z,23.40
2019-05-29T16:52:10.751Z,23.50
2019-05-29T16:54:40.596Z,23.50
2019-05-29T16:57:09.505Z,24.00
2019-05-29T16:59:38.748Z,24.00
2019-05-29T17:02:08.184Z,24.20
2019-05-29T17:04:37.109Z,24.40
2019-05-29T17:07:06.037Z,24.40
2019-05-29T17:09:35.190Z,25.10
2019-05-29T17:12:04.745Z,25.30
2019-05-29T17:14:33.675Z,25.50
2019-05-29T17:17:03.008Z,25.40
2019-05-29T17:19:32.543Z,24.80
2019-05-29T17:22:01.700Z,25.00
2019-05-29T17:24:30.966Z,24.80
2019-05-29T17:26:59.882Z,25.10
2019-05-29T17:29:29.206Z,25.30
2019-05-29T17:31:58.447Z,25.70
2019-05-29T17:34:27.668Z,26.10
2019-05-29T17:36:56.640Z,26.10
2019-05-29T17:39:25.858Z,26.80
2019-05-29T17:41:57.483Z,27.10
2019-05-29T17:44:27.519Z,27.00
2019-05-29T17:46:56.531Z,27.10
2019-05-29T17:49:32.991Z,27.00
2019-05-29T17:51:56.670Z,26.90
2019-05-29T17:54:26.135Z,26.50
2019-05-29T17:56:55.353Z,26.40
2019-05-29T17:59:26.212Z,26.10
2019-05-29T18:01:55.592Z,25.80
2019-05-29T18:04:25.166Z,25.50
2019-05-29T18:06:59.178Z,25.00
2019-05-29T18:09:29.329Z,25.10
2019-05-29T18:11:58.609Z,25.10
2019-05-29T18:14:28.523Z,24.90
2019-05-29T18:16:57.687Z,24.80
2019-05-29T18:21:55.624Z,24.90
2019-05-29T18:24:26.043Z,24.80
2019-05-29T18:26:58.914Z,25.00
2019-05-29T18:29:29.668Z,25.00
2019-05-29T18:31:58.914Z,24.60
2019-05-29T18:34:29.591Z,23.70
2019-05-29T18:36:58.582Z,23.60
2019-05-29T18:39:28.446Z,23.00
2019-05-29T18:41:57.828Z,22.40
2019-05-29T18:44:28.962Z,21.80
2019-05-29T18:46:57.971Z,21.80
2019-05-29T18:49:26.910Z,20.90
2019-05-29T18:51:55.974Z,20.70
2019-05-29T18:54:25.807Z,20.60
2019-05-29T18:57:13.871Z,20.30
2019-05-29T18:59:27.468Z,20.10
2019-05-29T19:01:56.496Z,19.70
2019-05-29T19:04:25.660Z,19.50
2019-05-29T19:06:54.448Z,19.50
2019-05-29T19:09:23.666Z,19.10
2019-05-29T19:11:52.682Z,19.10
2019-05-29T19:14:21.816Z,18.80
2019-05-29T19:16:50.763Z,18.80
2019-05-29T19:19:19.809Z,18.70
2019-05-29T19:21:48.867Z,18.40
2019-05-29T19:24:17.843Z,18.20
2019-05-29T19:26:46.686Z,18.10
2019-05-29T19:29:15.975Z,17.80
2019-05-29T19:31:44.862Z,17.70
2019-05-29T19:34:13.712Z,17.60
2019-05-29T19:36:42.538Z,17.50
2019-05-29T19:39:11.537Z,17.40
2019-05-29T19:41:41.148Z,17.40
2019-05-29T19:44:10.119Z,17.40
2019-05-29T19:46:53.165Z,17.30
2019-05-29T19:49:09.942Z,17.10
2019-05-29T19:51:44.424Z,17.00
2019-05-29T19:54:13.486Z,16.90
2019-05-29T19:56:42.283Z,16.90
2019-05-29T19:59:11.209Z,16.90
2019-05-29T20:01:40.654Z,16.60
2019-05-29T20:04:09.850Z,16.60
2019-05-29T20:06:38.826Z,16.40
2019-05-29T20:09:07.922Z,16.30
2019-05-29T20:11:37.888Z,16.30
2019-05-29T20:14:07.748Z,16.30
2019-05-29T20:16:36.807Z,16.30
2019-05-29T20:19:05.949Z,16.30
2019-05-29T20:21:34.876Z,16.20
2019-05-29T20:24:03.951Z,16.20
2019-05-29T20:26:35.119Z,16.10
2019-05-29T20:29:04.260Z,16.10
2019-05-29T20:31:33.064Z,16.00
2019-05-29T20:34:02.297Z,15.90
2019-05-29T20:36:34.451Z,15.80
2019-05-29T20:39:01.731Z,15.80
2019-05-29T20:41:33.821Z,15.70
2019-05-29T20:44:01.339Z,15.70
2019-05-29T20:46:30.482Z,15.60
2019-05-29T20:48:59.373Z,15.60
2019-05-29T20:51:28.282Z,15.60
2019-05-29T20:53:57.227Z,15.60
2019-05-29T20:56:26.404Z,15.60
2019-05-29T20:58:55.449Z,15.50
2019-05-29T21:01:24.600Z,15.40
2019-05-29T21:03:53.880Z,15.40
2019-05-29T21:06:22.740Z,15.30
2019-05-29T21:08:51.608Z,15.20
2019-05-29T21:11:20.401Z,15.10
2019-05-29T21:16:17.959Z,15.00
2019-05-29T21:18:47.127Z,15.00
2019-05-29T21:21:16.190Z,15.10
2019-05-29T21:23:45.137Z,15.00
2019-05-29T21:26:14.087Z,15.00
2019-05-29T21:28:47.005Z,15.00
2019-05-29T21:31:13.804Z,15.10
2019-05-29T21:33:46.960Z,15.10
2019-05-29T21:36:13.445Z,15.10
2019-05-29T21:38:42.324Z,15.00
2019-05-29T21:41:11.280Z,14.90
2019-05-29T21:43:41.312Z,14.90
2019-05-29T21:46:10.171Z,14.80
2019-05-29T21:48:39.121Z,14.80
2019-05-29T21:51:08.109Z,14.80
2019-05-29T21:53:37.297Z,14.70
2019-05-29T21:56:06.859Z,14.70
2019-05-29T21:58:35.671Z,14.70
2019-05-29T22:01:05.567Z,14.80
2019-05-29T22:03:34.454Z,14.70
2019-05-29T22:06:04.078Z,14.70
2019-05-29T22:08:33.159Z,14.80
2019-05-29T22:11:02.115Z,14.80
2019-05-29T22:13:31.164Z,14.80
2019-05-29T22:16:00.926Z,14.80
2019-05-29T22:18:32.987Z,14.80
2019-05-29T22:21:01.992Z,14.80
2019-05-29T22:23:31.127Z,14.80
2019-05-29T22:25:59.902Z,14.70
2019-05-29T22:28:29.111Z,14.70
2019-05-29T22:30:57.960Z,14.60
2019-05-29T22:33:27.176Z,14.60
2019-05-29T22:36:01.610Z,14.70
2019-05-29T22:38:30.588Z,14.60
2019-05-29T22:40:59.741Z,14.50
2019-05-29T22:43:28.627Z,14.50
2019-05-29T22:45:57.688Z,14.60
2019-05-29T22:48:26.606Z,14.60
2019-05-29T22:50:55.742Z,14.50
2019-05-29T22:53:24.543Z,14.50
2019-05-29T22:55:53.748Z,14.40
2019-05-29T22:58:22.864Z,14.30
2019-05-29T23:00:51.977Z,14.30
2019-05-29T23:03:20.801Z,14.20
2019-05-29T23:05:49.960Z,14.10
2019-05-29T23:08:18.767Z,14.10
2019-05-29T23:10:48.339Z,14.10
2019-05-29T23:13:17.444Z,14.10
2019-05-29T23:15:46.296Z,14.10
2019-05-29T23:18:15.237Z,14.00
2019-05-29T23:20:44.018Z,13.80
2019-05-29T23:23:12.815Z,13.80
2019-05-29T23:25:41.904Z,13.80
2019-05-29T23:28:10.744Z,13.70
2019-05-29T23:30:39.723Z,13.50
2019-05-29T23:33:08.907Z,13.50
2019-05-29T23:35:37.748Z,13.40
2019-05-29T23:38:06.619Z,13.40
2019-05-29T23:40:35.665Z,13.30
2019-05-29T23:43:04.622Z,13.30
2019-05-29T23:45:33.932Z,13.40
2019-05-29T23:48:03.852Z,13.30
2019-05-29T23:50:33.073Z,13.20
2019-05-29T23:53:02.015Z,13.20
2019-05-29T23:55:30.812Z,13.20
2019-05-29T23:57:59.899Z,13.20
